Time;durP1;ratioP1;P1;durP2;ratioP2;P2;SDS_P1;SDS_P2;PMS_P1;PMS_P2;Temp;Humidity;BMP_temperature;BMP_pressure;BME280_temperature;BME280_humidity;BME280_pressure;Samples;Min_cycle;Max_cycle;Signal;HPM_P1;HPM_P2
2022/01/22 00:01:43;;;;;;;15.25;5.00;;;;;;;;;;4996458;28;20429;-63
2022/01/22 00:04:10;;;;;;;12.02;5.35;;;;;;;;;;4995139;28;20054;-62
2022/01/22 00:06:36;;;;;;;13.35;5.35;;;;;;;;;;4995536;28;20032;-63
2022/01/22 00:09:04;;;;;;;15.27;5.80;;;;;;;;;;4994064;28;20039;-63
2022/01/22 00:11:35;;;;;;;9.50;3.92;;;;;;;;;;4993836;28;20536;-64
2022/01/22 00:16:47;;;;;;;32.40;12.73;;;;;;;;;;4994683;28;20038;-64
2022/01/22 00:19:13;;;;;;;30.15;11.77;;;;;;;;;;4994488;28;20034;-63
2022/01/22 00:21:40;;;;;;;26.85;10.40;;;;;;;;;;4994279;28;20029;-62
2022/01/22 00:24:09;;;;;;;20.70;8.38;;;;;;;;;;4993246;28;20471;-62
2022/01/22 00:26:35;;;;;;;23.42;9.52;;;;;;;;;;4993093;28;20029;-62
2022/01/22 00:29:02;;;;;;;23.35;8.50;;;;;;;;;;4994575;28;20034;-62
2022/01/22 00:31:28;;;;;;;24.48;9.57;;;;;;;;;;4994810;28;20060;-63
2022/01/22 00:33:54;;;;;;;22.83;9.02;;;;;;;;;;4994315;28;20049;-62
2022/01/22 00:36:20;;;;;;;17.38;7.40;;;;;;;;;;4994188;28;20026;-62
2022/01/22 00:38:46;;;;;;;17.73;6.90;;;;;;;;;;4993633;28;20030;-62
2022/01/22 00:41:12;;;;;;;11.82;5.45;;;;;;;;;;4992333;28;20027;-63
2022/01/22 00:43:39;;;;;;;18.55;6.78;;;;;;;;;;4993612;28;20022;-62
2022/01/22 00:46:05;;;;;;;14.63;6.80;;;;;;;;;;4994075;28;20105;-62
2022/01/22 00:48:31;;;;;;;22.70;8.20;;;;;;;;;;4994449;28;20022;-63
2022/01/22 00:50:59;;;;;;;21.83;9.55;;;;;;;;;;4994488;28;20030;-61
2022/01/22 00:53:25;;;;;;;26.23;9.05;;;;;;;;;;4993884;28;20014;-62
2022/01/22 00:55:51;;;;;;;19.30;7.32;;;;;;;;;;4992773;28;20455;-61
2022/01/22 00:58:17;;;;;;;26.40;8.60;;;;;;;;;;4993566;28;20054;-62
2022/01/22 01:00:44;;;;;;;21.20;7.82;;;;;;;;;;4993741;28;20018;-63
2022/01/22 01:03:10;;;;;;;21.45;7.70;;;;;;;;;;4993964;28;20113;-61
2022/01/22 01:05:37;;;;;;;19.65;7.35;;;;;;;;;;4994304;28;20081;-61
2022/01/22 01:08:04;;;;;;;16.20;6.20;;;;;;;;;;4993613;28;20082;-59
2022/01/22 01:10:30;;;;;;;16.25;6.25;;;;;;;;;;4993528;28;20030;-60
2022/01/22 01:12:56;;;;;;;16.38;6.32;;;;;;;;;;4993839;28;20033;-61
2022/01/22 01:34:42;;;;;;;13.23;5.38;;;;;;;;;;4960233;28;20034;-61
2022/01/22 01:37:09;;;;;;;15.07;5.32;;;;;;;;;;4993264;28;20379;-61
2022/01/22 01:39:37;;;;;;;13.70;6.18;;;;;;;;;;4993689;28;20475;-63
2022/01/22 01:42:08;;;;;;;17.20;6.43;;;;;;;;;;4993508;28;20097;-61
2022/01/22 01:44:35;;;;;;;15.48;5.45;;;;;;;;;;4993701;28;20022;-61
2022/01/22 01:47:02;;;;;;;10.30;5.05;;;;;;;;;;4995172;28;20023;-62
2022/01/22 01:49:29;;;;;;;17.33;6.18;;;;;;;;;;4997075;28;20039;-63
2022/01/22 01:51:58;;;;;;;10.95;5.13;;;;;;;;;;4996116;28;20030;-62
2022/01/22 01:59:44;;;;;;;15.88;5.88;;;;;;;;;;4997288;28;20088;-60
2022/01/22 02:02:10;;;;;;;14.95;6.18;;;;;;;;;;4997204;28;20029;-63
2022/01/22 02:04:36;;;;;;;15.77;6.45;;;;;;;;;;4979617;28;20154;-62
2022/01/22 02:07:03;;;;;;;20.23;6.90;;;;;;;;;;4978207;28;20122;-61
2022/01/22 02:09:29;;;;;;;20.92;6.55;;;;;;;;;;4996207;28;20030;-62
2022/01/22 02:12:07;;;;;;;16.95;6.70;;;;;;;;;;4996892;28;20030;-63
2022/01/22 02:25:24;;;;;;;16.48;6.50;;;;;;;;;;4996306;28;20033;-62
2022/01/22 02:27:51;;;;;;;15.82;6.47;;;;;;;;;;4996014;28;20022;-62
2022/01/22 02:30:24;;;;;;;18.58;6.47;;;;;;;;;;4995877;28;20068;-61
2022/01/22 02:35:56;;;;;;;19.55;6.32;;;;;;;;;;4995624;28;20044;-61
2022/01/22 02:38:33;;;;;;;17.48;7.03;;;;;;;;;;4996222;28;20383;-62
2022/01/22 02:40:59;;;;;;;18.65;7.80;;;;;;;;;;4996648;28;20026;-61
2022/01/22 02:43:25;;;;;;;17.40;7.32;;;;;;;;;;4994867;28;20389;-62
2022/01/22 02:45:52;;;;;;;15.63;6.88;;;;;;;;;;4995459;28;20101;-61
2022/01/22 02:48:18;;;;;;;20.10;8.00;;;;;;;;;;4995778;28;20025;-61
2022/01/22 02:50:45;;;;;;;16.92;8.32;;;;;;;;;;4978430;28;20081;-61
2022/01/22 02:53:12;;;;;;;12.77;6.47;;;;;;;;;;4995737;28;20443;-62
2022/01/22 02:55:39;;;;;;;19.45;6.85;;;;;;;;;;4996164;28;20033;-62
2022/01/22 02:58:05;;;;;;;18.33;6.55;;;;;;;;;;4996141;28;20050;-62
2022/01/22 03:00:32;;;;;;;19.95;7.65;;;;;;;;;;4995896;28;20027;-61
2022/01/22 03:02:58;;;;;;;18.25;8.35;;;;;;;;;;4996125;28;20102;-63
2022/01/22 03:05:25;;;;;;;16.30;8.00;;;;;;;;;;4996336;28;20015;-61
2022/01/22 03:07:54;;;;;;;20.17;7.65;;;;;;;;;;4995562;28;20518;-64
2022/01/22 03:10:23;;;;;;;20.65;7.65;;;;;;;;;;4995933;28;20561;-62
2022/01/22 03:16:09;;;;;;;15.82;6.10;;;;;;;;;;4996116;28;20121;-63
2022/01/22 03:18:43;;;;;;;14.82;6.15;;;;;;;;;;4992507;28;20030;-61
2022/01/22 03:29:20;;;;;;;16.10;6.75;;;;;;;;;;4995078;28;20037;-62
2022/01/22 03:31:47;;;;;;;17.60;8.13;;;;;;;;;;4995703;28;20124;-61
2022/01/22 03:34:14;;;;;;;15.27;6.72;;;;;;;;;;4994997;28;20870;-61
2022/01/22 03:36:40;;;;;;;19.48;7.53;;;;;;;;;;4995888;28;20455;-61
2022/01/22 03:39:08;;;;;;;15.98;6.78;;;;;;;;;;4995231;28;20030;-61
2022/01/22 03:41:34;;;;;;;68.50;27.25;;;;;;;;;;4994806;28;20022;-63
2022/01/22 03:44:01;;;;;;;17.88;7.68;;;;;;;;;;4995601;28;20487;-62
2022/01/22 03:46:27;;;;;;;11.30;5.05;;;;;;;;;;4995054;28;20030;-62
2022/01/22 03:48:53;;;;;;;21.30;9.00;;;;;;;;;;4995352;28;20432;-62
2022/01/22 03:51:19;;;;;;;14.70;7.25;;;;;;;;;;4995208;28;20030;-63
2022/01/22 03:53:45;;;;;;;9.60;4.80;;;;;;;;;;4995299;28;20025;-63
2022/01/22 03:56:12;;;;;;;17.42;5.82;;;;;;;;;;4994678;28;20515;-61
2022/01/22 03:58:40;;;;;;;11.15;4.93;;;;;;;;;;4995147;28;20485;-62
2022/01/22 04:01:37;;;;;;;12.93;4.75;;;;;;;;;;4994882;28;20395;-63
2022/01/22 04:04:06;;;;;;;10.82;4.70;;;;;;;;;;4993880;28;20038;-61
2022/01/22 04:09:03;;;;;;;11.23;4.57;;;;;;;;;;4993920;28;20034;-62
2022/01/22 04:11:31;;;;;;;10.07;4.13;;;;;;;;;;4994625;28;20023;-61
2022/01/22 04:14:01;;;;;;;11.32;4.43;;;;;;;;;;4994904;28;20084;-61
2022/01/22 04:16:28;;;;;;;19.80;4.72;;;;;;;;;;4994850;28;20037;-61
2022/01/22 04:27:15;;;;;;;10.13;4.00;;;;;;;;;;4994537;28;20533;-60
2022/01/22 04:29:41;;;;;;;13.20;3.90;;;;;;;;;;4994417;28;20038;-62
2022/01/22 04:32:08;;;;;;;10.63;3.88;;;;;;;;;;4994096;28;20031;-62
2022/01/22 04:34:34;;;;;;;8.32;2.88;;;;;;;;;;4994585;28;20105;-61
2022/01/22 04:37:00;;;;;;;10.63;2.95;;;;;;;;;;4994493;28;20039;-62
2022/01/22 04:39:27;;;;;;;6.55;2.60;;;;;;;;;;4994210;28;20030;-61
2022/01/22 04:41:55;;;;;;;7.10;2.67;;;;;;;;;;4994496;28;20022;-61
2022/01/22 04:44:25;;;;;;;8.82;3.22;;;;;;;;;;4994053;28;20178;-61
2022/01/22 04:47:13;;;;;;;5.90;2.75;;;;;;;;;;4994406;28;20026;-62
2022/01/22 04:55:02;;;;;;;4.43;1.70;;;;;;;;;;4994101;28;20112;-62
2022/01/22 04:57:29;;;;;;;6.78;2.22;;;;;;;;;;4994274;28;20042;-61
2022/01/22 04:59:56;;;;;;;3.25;1.60;;;;;;;;;;4993991;28;20022;-62
2022/01/22 05:02:22;;;;;;;5.95;1.73;;;;;;;;;;4993893;28;20114;-61
2022/01/22 05:04:48;;;;;;;7.50;2.08;;;;;;;;;;4994243;28;20023;-64
2022/01/22 05:07:15;;;;;;;9.02;3.70;;;;;;;;;;4993849;28;20026;-62
2022/01/22 05:09:41;;;;;;;8.77;3.97;;;;;;;;;;4994395;28;20467;-63
2022/01/22 05:12:07;;;;;;;17.38;5.05;;;;;;;;;;4993852;28;20073;-63
2022/01/22 05:14:34;;;;;;;8.80;3.33;;;;;;;;;;4994118;28;20031;-62
2022/01/22 05:17:03;;;;;;;9.60;3.42;;;;;;;;;;4994116;28;20030;-61
2022/01/22 05:19:37;;;;;;;6.72;2.58;;;;;;;;;;4993936;28;20463;-62
2022/01/22 05:24:53;;;;;;;7.25;2.80;;;;;;;;;;4997528;28;20529;-63
2022/01/22 05:33:15;;;;;;;8.70;2.65;;;;;;;;;;4997656;28;20037;-62
2022/01/22 05:38:35;;;;;;;5.60;1.98;;;;;;;;;;4996869;28;20097;-62
2022/01/22 05:41:02;;;;;;;5.88;1.65;;;;;;;;;;4997214;28;20030;-63
2022/01/22 05:43:28;;;;;;;5.90;1.88;;;;;;;;;;4997696;28;20030;-60
2022/01/22 05:45:54;;;;;;;6.53;2.40;;;;;;;;;;4997715;28;20065;-62
2022/01/22 05:48:20;;;;;;;4.40;2.13;;;;;;;;;;4997317;28;20026;-61
2022/01/22 05:50:57;;;;;;;5.30;2.20;;;;;;;;;;4997263;28;20101;-61
2022/01/22 06:01:20;;;;;;;5.65;2.75;;;;;;;;;;4977412;28;20061;-63
2022/01/22 06:03:46;;;;;;;8.18;3.50;;;;;;;;;;4977764;28;20035;-63
2022/01/22 06:06:13;;;;;;;6.38;2.90;;;;;;;;;;4977787;28;20027;-61
2022/01/22 06:08:51;;;;;;;5.78;2.47;;;;;;;;;;4977466;28;20029;-62
2022/01/22 06:11:25;;;;;;;7.15;2.90;;;;;;;;;;4977382;28;20030;-63
2022/01/22 06:13:52;;;;;;;13.07;3.25;;;;;;;;;;4977532;28;20029;-62
2022/01/22 06:16:19;;;;;;;7.07;2.30;;;;;;;;;;4977225;28;20092;-62
2022/01/22 06:18:46;;;;;;;7.25;2.38;;;;;;;;;;4977178;28;20106;-62
2022/01/22 06:21:12;;;;;;;4.03;2.22;;;;;;;;;;4976979;28;20046;-61
2022/01/22 06:23:39;;;;;;;4.95;2.83;;;;;;;;;;4966335;28;20415;-63
2022/01/22 06:26:06;;;;;;;18.38;6.88;;;;;;;;;;4977036;28;20402;-63
2022/01/22 06:28:32;;;;;;;22.23;8.43;;;;;;;;;;4975900;28;20026;-62
2022/01/22 06:30:59;;;;;;;31.35;11.05;;;;;;;;;;4976629;28;20022;-65
2022/01/22 06:33:25;;;;;;;40.05;15.07;;;;;;;;;;4976919;28;20085;-63
2022/01/22 06:35:51;;;;;;;23.00;11.18;;;;;;;;;;4977176;28;20427;-64
2022/01/22 06:38:18;;;;;;;17.70;7.20;;;;;;;;;;4977133;28;20019;-60
2022/01/22 06:43:30;;;;;;;21.70;7.45;;;;;;;;;;4976912;28;20061;-63
2022/01/22 06:45:56;;;;;;;18.70;7.85;;;;;;;;;;4976725;28;20015;-62
2022/01/22 06:48:22;;;;;;;16.58;7.53;;;;;;;;;;4977055;28;20080;-61
2022/01/22 06:50:49;;;;;;;24.35;10.15;;;;;;;;;;4976225;28;20022;-61
2022/01/22 06:53:15;;;;;;;21.60;10.07;;;;;;;;;;4979167;28;20031;-63
2022/01/22 06:55:45;;;;;;;30.27;10.63;;;;;;;;;;4976993;28;20042;-62
2022/01/22 06:58:11;;;;;;;25.05;10.10;;;;;;;;;;4976918;28;20069;-61
2022/01/22 07:00:38;;;;;;;23.27;10.68;;;;;;;;;;4976757;28;20041;-62
2022/01/22 07:03:04;;;;;;;24.88;10.88;;;;;;;;;;4976552;28;20034;-62
2022/01/22 07:05:30;;;;;;;21.40;9.82;;;;;;;;;;4976379;28;20041;-61
2022/01/22 07:07:57;;;;;;;18.15;7.60;;;;;;;;;;4981834;28;20022;-61
2022/01/22 07:10:23;;;;;;;14.82;6.30;;;;;;;;;;4994157;28;20177;-63
2022/01/22 07:12:49;;;;;;;12.27;5.60;;;;;;;;;;4996640;28;20041;-64
2022/01/22 07:15:15;;;;;;;10.73;5.30;;;;;;;;;;4981599;28;20025;-64
2022/01/22 07:17:43;;;;;;;7.90;4.22;;;;;;;;;;4995816;28;20145;-63
2022/01/22 07:20:14;;;;;;;13.40;5.30;;;;;;;;;;4995635;28;20026;-61
2022/01/22 07:25:28;;;;;;;12.30;5.65;;;;;;;;;;4978451;28;20038;-62
2022/01/22 07:27:54;;;;;;;12.77;5.43;;;;;;;;;;4976501;28;20035;-61
2022/01/22 07:30:20;;;;;;;14.68;6.07;;;;;;;;;;4975873;28;20428;-63
2022/01/22 07:32:46;;;;;;;14.20;5.10;;;;;;;;;;4975560;28;20039;-62
2022/01/22 07:35:14;;;;;;;9.70;4.65;;;;;;;;;;4975801;28;20027;-62
2022/01/22 07:37:40;;;;;;;13.32;4.38;;;;;;;;;;4975997;28;20378;-62
2022/01/22 07:40:08;;;;;;;10.52;5.32;;;;;;;;;;4975657;28;20058;-64
2022/01/22 07:42:35;;;;;;;16.67;7.82;;;;;;;;;;4975896;28;20110;-62
2022/01/22 07:45:01;;;;;;;22.48;10.70;;;;;;;;;;4974824;28;20058;-64
2022/01/22 07:47:27;;;;;;;20.58;8.07;;;;;;;;;;4975248;28;20023;-62
2022/01/22 07:49:53;;;;;;;13.07;6.30;;;;;;;;;;4975390;28;20029;-64
2022/01/22 07:52:20;;;;;;;18.98;7.20;;;;;;;;;;4975771;28;20035;-64
2022/01/22 07:54:46;;;;;;;18.77;7.82;;;;;;;;;;4975409;28;20042;-63
2022/01/22 07:57:12;;;;;;;18.15;7.80;;;;;;;;;;4978206;28;20132;-63
2022/01/22 07:59:38;;;;;;;18.23;8.35;;;;;;;;;;4994768;28;20491;-62
2022/01/22 08:02:05;;;;;;;15.52;9.27;;;;;;;;;;4994410;28;20086;-62
2022/01/22 08:04:31;;;;;;;24.35;11.43;;;;;;;;;;4994722;28;20018;-62
2022/01/22 08:06:59;;;;;;;34.35;14.02;;;;;;;;;;4992927;28;20503;-62
2022/01/22 08:09:25;;;;;;;26.92;12.85;;;;;;;;;;4985312;28;20027;-63
2022/01/22 08:11:52;;;;;;;28.02;11.98;;;;;;;;;;4994865;28;20034;-63
2022/01/22 08:14:21;;;;;;;22.75;10.77;;;;;;;;;;4994444;28;20352;-63
2022/01/22 08:16:52;;;;;;;23.60;11.15;;;;;;;;;;4994765;28;20030;-62
2022/01/22 08:19:20;;;;;;;24.05;10.23;;;;;;;;;;4994117;28;20026;-63
2022/01/22 08:21:47;;;;;;;16.65;8.88;;;;;;;;;;4994044;28;20360;-64
2022/01/22 08:24:14;;;;;;;16.08;8.07;;;;;;;;;;4994570;28;20030;-62
2022/01/22 08:26:47;;;;;;;21.13;10.10;;;;;;;;;;4994372;28;20038;-63
2022/01/22 08:29:13;;;;;;;17.88;9.48;;;;;;;;;;4994014;28;20023;-61
2022/01/22 08:31:53;;;;;;;21.45;10.15;;;;;;;;;;4994303;28;20027;-61
2022/01/22 08:37:04;;;;;;;24.15;10.85;;;;;;;;;;4994241;28;20053;-63
2022/01/22 08:39:30;;;;;;;21.52;10.07;;;;;;;;;;4994502;28;20032;-63
2022/01/22 08:41:56;;;;;;;21.27;10.00;;;;;;;;;;4993837;28;20034;-52
2022/01/22 08:44:23;;;;;;;20.10;9.68;;;;;;;;;;4994132;28;20031;-55
2022/01/22 08:46:49;;;;;;;24.92;9.80;;;;;;;;;;4994505;28;20117;-56
2022/01/22 08:49:15;;;;;;;19.25;9.35;;;;;;;;;;4993800;28;20026;-57
2022/01/22 08:51:41;;;;;;;25.90;12.25;;;;;;;;;;4994571;28;20109;-54
2022/01/22 08:54:10;;;;;;;22.52;11.32;;;;;;;;;;4994263;28;20118;-53
2022/01/22 08:56:41;;;;;;;24.65;12.13;;;;;;;;;;4993169;28;20042;-58
2022/01/22 08:59:08;;;;;;;32.35;13.65;;;;;;;;;;4994101;28;20379;-58
2022/01/22 09:01:34;;;;;;;27.23;12.43;;;;;;;;;;4994149;28;20104;-58
2022/01/22 09:04:01;;;;;;;22.58;9.68;;;;;;;;;;4993919;28;20060;-56
2022/01/22 09:06:28;;;;;;;19.70;10.05;;;;;;;;;;4994124;28;20048;-59
2022/01/22 09:09:00;;;;;;;18.38;9.07;;;;;;;;;;4994368;28;20030;-53
2022/01/22 09:11:27;;;;;;;23.50;9.43;;;;;;;;;;4993920;28;20038;-57
2022/01/22 09:13:53;;;;;;;29.05;12.75;;;;;;;;;;4993916;28;20479;-53
2022/01/22 09:16:20;;;;;;;21.88;10.18;;;;;;;;;;4993697;28;20041;-54
2022/01/22 09:18:46;;;;;;;24.67;10.30;;;;;;;;;;4993477;28;20045;-57
2022/01/22 09:21:12;;;;;;;21.98;8.40;;;;;;;;;;4993729;28;20386;-55
2022/01/22 09:23:38;;;;;;;14.73;6.20;;;;;;;;;;4993929;28;20139;-56
2022/01/22 09:26:05;;;;;;;13.20;5.88;;;;;;;;;;4976102;28;20046;-52
2022/01/22 09:28:34;;;;;;;15.63;6.90;;;;;;;;;;4992882;28;20045;-58
2022/01/22 09:31:00;;;;;;;12.85;6.82;;;;;;;;;;4993436;28;20029;-55
2022/01/22 09:33:27;;;;;;;14.45;6.68;;;;;;;;;;4993830;28;20022;-54
2022/01/22 09:35:53;;;;;;;22.40;7.93;;;;;;;;;;4993776;28;20037;-58
2022/01/22 09:38:19;;;;;;;17.08;6.93;;;;;;;;;;4993478;28;20023;-56
2022/01/22 09:40:45;;;;;;;12.68;5.75;;;;;;;;;;4993837;28;20039;-50
2022/01/22 09:43:12;;;;;;;15.05;7.15;;;;;;;;;;4993939;28;20499;-51
2022/01/22 09:45:38;;;;;;;15.93;7.35;;;;;;;;;;4993470;28;20026;-56
2022/01/22 09:48:04;;;;;;;14.50;7.40;;;;;;;;;;4993420;28;20034;-55
2022/01/22 09:50:32;;;;;;;17.20;7.78;;;;;;;;;;4993296;28;20027;-56
2022/01/22 09:52:58;;;;;;;15.77;6.80;;;;;;;;;;4993607;28;20018;-51
2022/01/22 09:55:25;;;;;;;21.75;9.02;;;;;;;;;;4993697;28;20082;-52
2022/01/22 09:57:54;;;;;;;10.27;5.95;;;;;;;;;;4993505;28;20133;-53
2022/01/22 10:00:20;;;;;;;17.00;6.95;;;;;;;;;;4993307;28;20034;-53
2022/01/22 10:02:47;;;;;;;17.48;7.22;;;;;;;;;;4990154;28;20023;-55
2022/01/22 10:05:27;;;;;;;8.90;4.30;;;;;;;;;;4965333;28;20022;-52
2022/01/22 10:07:53;;;;;;;8.18;3.85;;;;;;;;;;4985176;28;20034;-55
2022/01/22 10:10:20;;;;;;;9.63;5.35;;;;;;;;;;4995207;28;20038;-52
2022/01/22 10:12:47;;;;;;;15.23;8.35;;;;;;;;;;4995608;28;20030;-55
2022/01/22 10:15:18;;;;;;;20.45;8.07;;;;;;;;;;4986080;28;20062;-54
2022/01/22 10:17:47;;;;;;;14.67;6.70;;;;;;;;;;4988355;28;20471;-56
2022/01/22 10:20:22;;;;;;;44.95;12.52;;;;;;;;;;4978222;28;20479;-52
2022/01/22 10:22:49;;;;;;;22.30;8.50;;;;;;;;;;4985248;28;20387;-56
2022/01/22 10:25:26;;;;;;;16.50;6.80;;;;;;;;;;4990872;28;20022;-57
2022/01/22 10:28:03;;;;;;;54.30;18.38;;;;;;;;;;4988486;28;20023;-55
2022/01/22 10:30:42;;;;;;;12.80;7.25;;;;;;;;;;4987398;28;20479;-54
2022/01/22 10:33:22;;;;;;;12.93;4.22;;;;;;;;;;4984526;28;20054;-55
2022/01/22 10:35:49;;;;;;;11.38;3.10;;;;;;;;;;4979210;28;20049;-57
2022/01/22 10:38:17;;;;;;;10.65;4.45;;;;;;;;;;4985617;28;20018;-56
2022/01/22 10:40:44;;;;;;;5.80;2.72;;;;;;;;;;4984012;28;20022;-56
2022/01/22 10:43:17;;;;;;;4.90;2.20;;;;;;;;;;4985182;28;20367;-57
2022/01/22 10:46:00;;;;;;;5.97;2.80;;;;;;;;;;4985689;28;20113;-53
2022/01/22 10:48:26;;;;;;;5.82;3.00;;;;;;;;;;4980713;28;20026;-61
2022/01/22 10:51:03;;;;;;;5.43;2.88;;;;;;;;;;4976430;28;20065;-54
2022/01/22 10:53:43;;;;;;;5.85;2.50;;;;;;;;;;4976738;28;20035;-54
2022/01/22 10:56:12;;;;;;;7.57;3.08;;;;;;;;;;4980757;28;20042;-55
2022/01/22 10:58:51;;;;;;;5.30;2.65;;;;;;;;;;4984506;28;20037;-54
2022/01/22 11:01:17;;;;;;;6.15;2.50;;;;;;;;;;4984906;28;20019;-53
2022/01/22 11:03:43;;;;;;;6.47;2.97;;;;;;;;;;4984297;28;20026;-51
2022/01/22 11:06:23;;;;;;;7.78;2.70;;;;;;;;;;4986015;28;20460;-53
2022/01/22 11:08:51;;;;;;;8.93;2.25;;;;;;;;;;4984835;28;20011;-55
2022/01/22 11:11:17;;;;;;;6.75;2.90;;;;;;;;;;4984840;28;20033;-54
2022/01/22 11:13:43;;;;;;;7.70;3.47;;;;;;;;;;4980708;28;20023;-55
2022/01/22 11:16:10;;;;;;;10.23;4.10;;;;;;;;;;4974049;28;20398;-54
2022/01/22 11:18:38;;;;;;;5.30;2.42;;;;;;;;;;4974966;28;20391;-58
2022/01/22 11:21:08;;;;;;;14.18;5.82;;;;;;;;;;4975010;28;20055;-54
2022/01/22 11:23:35;;;;;;;7.13;3.33;;;;;;;;;;4975209;28;20110;-57
2022/01/22 11:26:02;;;;;;;5.45;2.55;;;;;;;;;;4973446;28;20019;-55
2022/01/22 11:28:28;;;;;;;8.55;3.70;;;;;;;;;;4975355;28;20412;-57
2022/01/22 11:30:55;;;;;;;9.40;3.38;;;;;;;;;;4975450;28;20022;-57
2022/01/22 11:33:23;;;;;;;7.30;3.28;;;;;;;;;;4958436;28;20034;-55
2022/01/22 11:35:52;;;;;;;6.45;2.80;;;;;;;;;;4975748;28;20031;-58
2022/01/22 11:38:30;;;;;;;8.15;3.55;;;;;;;;;;4975721;28;20027;-56
2022/01/22 11:41:10;;;;;;;10.50;4.70;;;;;;;;;;4975804;28;20467;-50
2022/01/22 11:44:04;;;;;;;10.43;3.47;;;;;;;;;;4975746;28;20019;-54
2022/01/22 11:46:35;;;;;;;8.07;3.88;;;;;;;;;;4976069;28;20026;-53
2022/01/22 11:49:13;;;;;;;6.35;3.65;;;;;;;;;;4975803;28;20033;-56
2022/01/22 11:51:40;;;;;;;10.77;4.25;;;;;;;;;;4975174;28;20027;-54
2022/01/22 11:54:06;;;;;;;9.27;4.30;;;;;;;;;;4975493;28;20034;-57
2022/01/22 11:56:43;;;;;;;7.03;3.65;;;;;;;;;;4975511;28;20124;-55
2022/01/22 11:59:12;;;;;;;9.70;4.00;;;;;;;;;;4975096;28;20029;-52
2022/01/22 12:01:38;;;;;;;7.40;3.90;;;;;;;;;;4975691;28;20037;-57
2022/01/22 12:04:05;;;;;;;12.35;4.57;;;;;;;;;;4975213;28;20033;-55
2022/01/22 12:06:35;;;;;;;10.38;5.40;;;;;;;;;;4984313;28;20027;-58
2022/01/22 12:09:09;;;;;;;8.80;4.40;;;;;;;;;;4992964;28;20026;-55
2022/01/22 12:14:48;;;;;;;14.10;5.53;;;;;;;;;;4994600;28;20037;-52
2022/01/22 12:17:24;;;;;;;13.45;4.40;;;;;;;;;;4994845;28;20371;-55
2022/01/22 12:22:47;;;;;;;19.88;8.35;;;;;;;;;;4994616;28;20034;-54
2022/01/22 12:25:13;;;;;;;12.98;6.97;;;;;;;;;;4994342;28;20022;-55
2022/01/22 12:27:43;;;;;;;15.18;6.75;;;;;;;;;;4994077;28;20032;-51
2022/01/22 12:30:09;;;;;;;16.75;8.75;;;;;;;;;;4993853;28;20105;-51
2022/01/22 12:32:45;;;;;;;14.63;7.88;;;;;;;;;;4994581;28;20034;-50
2022/01/22 12:35:31;;;;;;;15.05;8.45;;;;;;;;;;4994014;28;20018;-55
2022/01/22 12:38:14;;;;;;;18.13;9.23;;;;;;;;;;4992723;28;20030;-57
2022/01/22 12:40:40;;;;;;;22.15;9.23;;;;;;;;;;4992932;28;20027;-53
2022/01/22 12:43:09;;;;;;;11.80;6.30;;;;;;;;;;4993597;28;20022;-52
2022/01/22 12:45:37;;;;;;;15.90;7.88;;;;;;;;;;4994317;28;20030;-53
2022/01/22 12:48:03;;;;;;;14.98;8.20;;;;;;;;;;4993900;28;20018;-51
2022/01/22 12:50:31;;;;;;;13.98;7.10;;;;;;;;;;4994159;28;20105;-52
2022/01/22 12:53:04;;;;;;;14.68;6.28;;;;;;;;;;4994095;28;20093;-52
2022/01/22 12:55:49;;;;;;;12.07;6.30;;;;;;;;;;4993846;28;20033;-51
2022/01/22 12:58:32;;;;;;;16.02;7.18;;;;;;;;;;4994333;28;20062;-51
2022/01/22 13:01:13;;;;;;;17.05;8.98;;;;;;;;;;4994015;28;20109;-54
2022/01/22 13:03:39;;;;;;;;;;;;;;;;;;4994327;28;20527;-56
2022/01/22 13:06:06;;;;;;;17.50;8.57;;;;;;;;;;4994277;28;19920;-56
2022/01/22 13:08:33;;;;;;;9.32;5.13;;;;;;;;;;4993771;28;20026;-52
2022/01/22 13:11:01;;;;;;;10.15;5.07;;;;;;;;;;4994004;28;20042;-57
2022/01/22 13:13:28;;;;;;;7.95;5.05;;;;;;;;;;4994093;28;20458;-54
2022/01/22 13:16:04;;;;;;;12.35;7.00;;;;;;;;;;4993226;28;20033;-55
2022/01/22 13:18:39;;;;;;;13.18;6.20;;;;;;;;;;4992341;28;20590;-54
2022/01/22 13:21:07;;;;;;;13.48;7.18;;;;;;;;;;4974899;28;20492;-51
2022/01/22 13:23:34;;;;;;;20.17;8.05;;;;;;;;;;4974033;28;20480;-53
2022/01/22 13:26:00;;;;;;;13.77;6.55;;;;;;;;;;4974606;28;20162;-53
2022/01/22 13:28:34;;;;;;;16.13;6.68;;;;;;;;;;4974411;28;20033;-59
2022/01/22 13:31:06;;;;;;;10.88;5.97;;;;;;;;;;4973913;28;20082;-56
2022/01/22 13:36:31;;;;;;;14.63;6.45;;;;;;;;;;4981826;28;20022;-51
2022/01/22 13:49:54;;;;;;;17.08;9.23;;;;;;;;;;4996885;28;20038;-56
2022/01/22 13:52:21;;;;;;;22.17;9.82;;;;;;;;;;4997631;28;20375;-53
2022/01/22 13:54:51;;;;;;;18.98;9.75;;;;;;;;;;4996960;28;20027;-53
2022/01/22 13:57:19;;;;;;;18.02;8.75;;;;;;;;;;4996266;28;20069;-56
2022/01/22 13:59:46;;;;;;;17.08;8.98;;;;;;;;;;4996407;28;20023;-51
2022/01/22 14:04:49;;;;;;;21.00;10.95;;;;;;;;;;4996863;28;20034;-54
2022/01/22 14:07:29;;;;;;;18.85;10.15;;;;;;;;;;4996818;28;20022;-59
2022/01/22 14:10:18;;;;;;;22.75;9.93;;;;;;;;;;4987698;28;20541;-58
2022/01/22 14:12:48;;;;;;;25.50;12.02;;;;;;;;;;4991257;28;20047;-51
2022/01/22 14:15:28;;;;;;;24.08;11.98;;;;;;;;;;4995130;28;20018;-55
2022/01/22 14:18:08;;;;;;;24.15;11.70;;;;;;;;;;4996474;28;20385;-52
2022/01/22 14:20:55;;;;;;;20.77;10.38;;;;;;;;;;4977075;28;20035;-55
2022/01/22 14:23:24;;;;;;;19.98;11.32;;;;;;;;;;4980567;28;20037;-55
2022/01/22 14:26:01;;;;;;;22.23;11.57;;;;;;;;;;4994603;28;20041;-57
2022/01/22 14:28:39;;;;;;;22.63;12.27;;;;;;;;;;4994913;28;20026;-53
2022/01/22 14:31:17;;;;;;;23.27;13.05;;;;;;;;;;4996449;28;20027;-52
2022/01/22 14:33:44;;;;;;;24.52;12.50;;;;;;;;;;4996293;28;20026;-54
2022/01/22 14:36:14;;;;;;;22.83;12.60;;;;;;;;;;4996522;28;20367;-55
2022/01/22 14:38:44;;;;;;;15.77;9.20;;;;;;;;;;4995737;28;20019;-57
2022/01/22 14:46:57;;;;;;;22.83;12.18;;;;;;;;;;4975990;28;20031;-54
2022/01/22 14:49:24;;;;;;;23.38;11.88;;;;;;;;;;4976566;28;20023;-53
2022/01/22 14:51:50;;;;;;;22.95;12.25;;;;;;;;;;4976785;28;20031;-53
2022/01/22 14:54:18;;;;;;;23.95;12.18;;;;;;;;;;4976259;28;20428;-56
2022/01/22 14:56:44;;;;;;;26.38;13.40;;;;;;;;;;4976675;28;20055;-52
2022/01/22 14:59:10;;;;;;;28.58;14.35;;;;;;;;;;4976636;28;20027;-56
2022/01/22 15:01:36;;;;;;;28.27;13.77;;;;;;;;;;4980018;28;20022;-56
2022/01/22 15:04:03;;;;;;;28.38;14.05;;;;;;;;;;4995859;28;20023;-56
2022/01/22 15:06:29;;;;;;;32.95;16.58;;;;;;;;;;4995972;28;20471;-55
2022/01/22 15:08:55;;;;;;;37.10;18.52;;;;;;;;;;4995299;28;20424;-50
2022/01/22 15:11:21;;;;;;;36.38;19.15;;;;;;;;;;4995582;28;20475;-53
2022/01/22 15:13:47;;;;;;;35.33;17.67;;;;;;;;;;4995580;28;20546;-53
2022/01/22 15:16:19;;;;;;;36.55;17.85;;;;;;;;;;4995756;28;20023;-56
2022/01/22 15:18:51;;;;;;;28.75;14.52;;;;;;;;;;4995321;28;20042;-51
2022/01/22 15:21:17;;;;;;;23.42;12.30;;;;;;;;;;4995327;28;20072;-56
2022/01/22 15:23:44;;;;;;;23.48;10.32;;;;;;;;;;4995285;28;20092;-58
2022/01/22 15:26:10;;;;;;;20.52;10.60;;;;;;;;;;4995173;28;20534;-60
2022/01/22 15:28:43;;;;;;;22.02;11.52;;;;;;;;;;4995019;28;20023;-57
2022/01/22 15:31:26;;;;;;;29.33;15.50;;;;;;;;;;4995613;28;20069;-54
2022/01/22 15:34:06;;;;;;;30.42;16.80;;;;;;;;;;4995733;28;20027;-53
2022/01/22 15:36:32;;;;;;;35.57;20.20;;;;;;;;;;4994944;28;20018;-57
2022/01/22 15:38:59;;;;;;;39.40;20.33;;;;;;;;;;4994929;28;20482;-58
2022/01/22 15:41:25;;;;;;;39.70;19.92;;;;;;;;;;4994570;28;20521;-55
2022/01/22 15:43:51;;;;;;;35.50;17.70;;;;;;;;;;4992903;28;20022;-53
2022/01/22 15:46:17;;;;;;;47.33;21.77;;;;;;;;;;4991783;28;20038;-52
2022/01/22 15:48:46;;;;;;;32.78;16.55;;;;;;;;;;4994839;28;20030;-58
2022/01/22 15:51:12;;;;;;;32.22;15.40;;;;;;;;;;4994870;28;20084;-59
2022/01/22 15:53:38;;;;;;;29.30;15.30;;;;;;;;;;4995279;28;20030;-58
2022/01/22 15:56:04;;;;;;;27.75;14.65;;;;;;;;;;4994656;28;20037;-59
2022/01/22 15:58:32;;;;;;;21.63;11.95;;;;;;;;;;4995090;28;20050;-51
2022/01/22 16:00:59;;;;;;;24.25;13.68;;;;;;;;;;4994983;28;20034;-57
2022/01/22 16:03:25;;;;;;;23.25;12.82;;;;;;;;;;4994760;28;20093;-54
2022/01/22 16:05:56;;;;;;;28.63;13.50;;;;;;;;;;4993214;28;20369;-57
2022/01/22 16:08:22;;;;;;;33.22;15.65;;;;;;;;;;4995081;28;20085;-50
2022/01/22 16:10:48;;;;;;;26.00;14.43;;;;;;;;;;4994428;28;20026;-56
2022/01/22 16:13:18;;;;;;;27.45;14.60;;;;;;;;;;4994753;28;20052;-56
2022/01/22 16:15:45;;;;;;;30.80;15.70;;;;;;;;;;4994805;28;20015;-52
2022/01/22 16:18:11;;;;;;;28.80;14.30;;;;;;;;;;4994094;28;20566;-53
2022/01/22 16:20:38;;;;;;;23.13;12.07;;;;;;;;;;4994826;28;20037;-57
2022/01/22 16:23:04;;;;;;;16.80;9.68;;;;;;;;;;4994481;28;20023;-53
2022/01/22 16:25:30;;;;;;;16.30;9.73;;;;;;;;;;4994161;28;20027;-56
2022/01/22 16:27:56;;;;;;;17.75;9.73;;;;;;;;;;4994428;28;20022;-56
2022/01/22 16:30:23;;;;;;;19.08;10.27;;;;;;;;;;4994409;28;20026;-59
2022/01/22 16:32:49;;;;;;;15.18;8.40;;;;;;;;;;4994356;28;20033;-54
2022/01/22 16:35:15;;;;;;;12.48;7.63;;;;;;;;;;4994248;28;20422;-60
2022/01/22 16:37:41;;;;;;;12.02;7.40;;;;;;;;;;4994781;28;20348;-59
2022/01/22 16:40:13;;;;;;;15.63;8.63;;;;;;;;;;4993840;28;20113;-63
2022/01/22 16:42:47;;;;;;;21.17;7.43;;;;;;;;;;4994491;28;20364;-63